Time;durP1;ratioP1;P1;durP2;ratioP2;P2;SDS_P1;SDS_P2;PMS_P1;PMS_P2;Temp;Humidity;BMP_temperature;BMP_pressure;BME280_temperature;BME280_humidity;BME280_pressure;Samples;Min_cycle;Max_cycle;Signal;HPM_P1;HPM_P2
2022/10/13 00:00:16;;;;;;;23.00;17.08;;;;;;;29.26;74.06;100831.13;5074140;27;66706;-41
2022/10/13 00:02:47;;;;;;;26.40;18.10;;;;;;;29.29;73.61;100825.28;5069644;28;68997;-40
2022/10/13 00:05:17;;;;;;;38.75;21.65;;;;;;;29.49;71.90;100827.94;5050346;28;65944;-41
2022/10/13 00:07:48;;;;;;;21.65;17.92;;;;;;;29.54;70.49;100827.31;5053069;28;71243;-41
2022/10/13 00:10:18;;;;;;;20.63;16.75;;;;;;;29.58;70.09;100829.38;5056116;28;65481;-43
2022/10/13 00:12:49;;;;;;;24.60;17.83;;;;;;;29.51;70.14;100800.72;5055200;28;69472;-43
2022/10/13 00:15:24;;;;;;;26.50;18.67;;;;;;;29.65;71.14;100824.00;5056336;28;66523;-44
2022/10/13 00:17:55;;;;;;;32.22;20.48;;;;;;;29.70;70.91;100837.69;5058679;28;70666;-42
2022/10/13 00:20:25;;;;;;;31.73;19.27;;;;;;;29.72;71.12;100838.28;5060510;28;66495;-44
2022/10/13 00:22:56;;;;;;;28.55;19.73;;;;;;;29.74;71.04;100832.69;5060960;28;70054;-42
2022/10/13 00:25:26;;;;;;;28.52;20.55;;;;;;;29.67;73.06;100838.13;5061129;28;66127;-41
2022/10/13 00:27:57;;;;;;;30.67;19.58;;;;;;;29.74;70.85;100833.50;5059394;28;70236;-42
2022/10/13 00:30:37;;;;;;;25.85;16.83;;;;;;;29.81;70.63;100838.88;5053043;28;66426;-40
2022/10/13 00:33:09;;;;;;;25.50;16.75;;;;;;;29.83;70.12;100837.63;5050800;28;69000;-42
2022/10/13 00:35:46;;;;;;;22.42;17.05;;;;;;;29.87;70.33;100843.47;5058612;28;66708;-40
2022/10/13 00:38:22;;;;;;;19.92;16.98;;;;;;;29.37;70.22;100759.41;5055481;28;70194;-40
2022/10/13 00:40:55;;;;;;;28.38;17.90;;;;;;;29.82;70.06;100829.75;5055801;28;66343;-41
2022/10/13 00:43:46;;;;;;;25.40;17.23;;;;;;;29.87;69.72;100826.41;5043663;28;70829;-40
2022/10/13 00:46:17;;;;;;;22.00;16.58;;;;;;;29.93;69.63;100855.28;5054914;28;66068;-40
2022/10/13 00:48:51;;;;;;;23.20;16.30;;;;;;;29.96;69.43;100847.56;5057224;28;70021;-40
2022/10/13 00:51:26;;;;;;;19.65;15.88;;;;;;;29.83;69.32;100847.63;5055909;28;66094;-40
2022/10/13 00:53:58;;;;;;;20.30;15.35;;;;;;;29.90;69.59;100842.19;5058770;28;70073;-40
2022/10/13 00:56:29;;;;;;;20.73;15.85;;;;;;;29.97;69.41;100864.63;5047743;28;65389;-40
2022/10/13 00:59:00;;;;;;;25.30;16.70;;;;;;;29.99;69.53;100857.13;5055512;28;69317;-40
2022/10/13 01:01:31;;;;;;;18.77;15.55;;;;;;;30.01;69.33;100855.03;5058279;28;66482;-42
2022/10/13 01:04:02;;;;;;;18.92;15.02;;;;;;;29.94;69.32;100846.13;5057413;28;69528;-40
2022/10/13 01:06:33;;;;;;;17.27;15.10;;;;;;;30.05;69.14;100861.66;5054496;28;66902;-39
2022/10/13 01:09:04;;;;;;;16.65;14.85;;;;;;;30.05;69.37;100867.91;5056269;28;70102;-41
2022/10/13 01:11:46;;;;;;;15.50;14.00;;;;;;;30.05;69.08;100861.66;5057385;28;66483;-41
2022/10/13 01:14:31;;;;;;;16.10;14.40;;;;;;;29.61;69.10;100798.38;5057226;28;69688;-40
2022/10/13 01:17:38;;;;;;;16.83;14.38;;;;;;;29.95;69.31;100861.28;5056676;28;66503;-42
2022/10/13 01:20:08;;;;;;;15.25;13.70;;;;;;;30.07;68.99;100856.88;5057148;28;70401;-40
2022/10/13 01:23:11;;;;;;;20.13;14.18;;;;;;;30.01;68.87;100855.03;5057904;28;66686;-42
2022/10/13 01:25:47;;;;;;;;;;;;;;;29.68;69.73;100861.41;5049071;28;69898;-39
2022/10/13 01:28:26;;;;;;;14.80;13.38;;;;;;;30.02;68.69;100856.69;5055508;28;66879;-41
2022/10/13 01:31:09;;;;;;;17.65;13.60;;;;;;;29.38;68.35;100748.38;5054270;28;69269;-42
2022/10/13 01:33:54;;;;;;;17.98;13.38;;;;;;;30.05;68.40;100856.25;5058505;28;66438;-42
2022/10/13 01:37:13;;;;;;;19.00;13.15;;;;;;;29.80;68.84;100832.66;5054806;28;69981;-41
2022/10/13 01:40:06;;;;;;;14.45;13.07;;;;;;;30.07;68.02;100865.00;5012026;28;66001;-41
2022/10/13 01:42:41;;;;;;;;;;;;;;;29.72;69.14;100872.63;5055305;28;70525;-42
2022/10/13 01:45:21;;;;;;;13.85;12.38;;;;;;;30.11;68.61;100855.41;5057346;28;66648;-41
2022/10/13 01:47:52;;;;;;;13.50;12.18;;;;;;;30.16;68.20;100857.47;5054653;28;70351;-42
2022/10/13 01:50:22;;;;;;;14.65;11.88;;;;;;;30.16;68.18;100852.88;5055404;28;65307;-41
2022/10/13 01:52:55;;;;;;;13.68;12.32;;;;;;;30.15;67.96;100856.63;5057933;28;69936;-42
2022/10/13 01:55:27;;;;;;;13.80;12.32;;;;;;;30.21;67.86;100866.59;5061326;28;66101;-41
2022/10/13 01:57:58;;;;;;;13.70;12.10;;;;;;;30.20;67.86;100859.53;5061311;28;70368;-41
2022/10/13 02:00:34;;;;;;;13.80;12.48;;;;;;;29.90;67.95;100812.44;5062229;28;65528;-40
2022/10/13 02:03:30;;;;;;;13.85;12.02;;;;;;;29.66;67.53;100787.78;5052080;28;70448;-41
2022/10/13 02:06:15;;;;;;;13.55;11.85;;;;;;;30.21;67.08;100871.19;5061546;28;66365;-42
2022/10/13 02:09:02;;;;;;;12.30;11.25;;;;;;;30.14;67.31;100863.06;5056240;28;69412;-40
2022/10/13 02:11:33;;;;;;;15.90;11.98;;;;;;;30.32;67.62;100872.41;5057004;28;66590;-40
2022/10/13 02:14:13;;;;;;;13.95;12.65;;;;;;;29.48;66.90;100725.47;5060140;28;70085;-40
2022/10/13 02:16:46;;;;;;;13.15;11.80;;;;;;;30.23;67.03;100852.88;5060292;28;65603;-40
2022/10/13 02:19:18;;;;;;;13.25;11.90;;;;;;;29.83;66.88;100777.31;5058347;28;70664;-40
2022/10/13 02:21:48;;;;;;;;;;;;;;;30.00;67.94;100869.59;5050478;28;65907;-41
2022/10/13 02:24:19;;;;;;;12.88;11.15;;;;;;;30.33;67.55;100855.09;5056568;28;69704;-41
2022/10/13 02:26:51;;;;;;;13.27;11.38;;;;;;;30.39;67.07;100846.13;5058356;28;66055;-40
2022/10/13 02:29:21;;;;;;;12.77;11.55;;;;;;;30.39;67.40;100841.53;5060095;28;70414;-40
2022/10/13 02:31:53;;;;;;;12.38;11.15;;;;;;;30.45;66.71;100850.66;5060389;28;65379;-41
2022/10/13 02:34:24;;;;;;;13.73;12.32;;;;;;;30.45;66.57;100829.00;5059801;28;70523;-40
2022/10/13 02:36:54;;;;;;;13.95;11.48;;;;;;;30.47;66.60;100821.50;5055257;28;66763;-41
2022/10/13 02:39:24;;;;;;;12.25;11.13;;;;;;;30.49;66.27;100814.81;5062165;27;70186;-40
2022/10/13 02:41:55;;;;;;;11.30;10.30;;;;;;;30.48;66.31;100815.88;5060708;28;65995;-41
2022/10/13 02:44:26;;;;;;;12.45;11.02;;;;;;;30.42;66.77;100805.94;5059241;28;69960;-40
2022/10/13 02:46:56;;;;;;;12.57;11.43;;;;;;;30.54;66.77;100816.88;5057672;28;66852;-41
2022/10/13 02:49:27;;;;;;;11.65;10.57;;;;;;;30.55;66.30;100801.47;5058797;28;70334;-40
2022/10/13 02:51:57;;;;;;;11.88;10.93;;;;;;;30.59;66.31;100808.94;5054849;28;66281;-40
2022/10/13 02:54:28;;;;;;;12.00;10.80;;;;;;;30.62;66.33;100802.22;5056436;28;69997;-40
2022/10/13 02:56:58;;;;;;;12.30;10.73;;;;;;;30.63;66.38;100802.00;5059607;28;65482;-40
2022/10/13 02:59:29;;;;;;;12.02;10.73;;;;;;;30.67;66.33;100803.25;5058336;28;70054;-40
2022/10/13 03:02:00;;;;;;;11.20;10.23;;;;;;;30.68;65.71;100791.34;5058269;28;66331;-41
2022/10/13 03:04:31;;;;;;;11.85;9.90;;;;;;;30.68;65.87;100796.78;5059329;28;69593;-40
2022/10/13 03:07:05;;;;;;;12.35;10.00;;;;;;;30.72;65.84;100803.38;5051185;28;65506;-40
2022/10/13 03:09:35;;;;;;;10.07;9.32;;;;;;;30.75;65.30;100795.88;5059027;28;70448;-40
2022/10/13 03:12:07;;;;;;;11.02;10.05;;;;;;;30.66;65.48;100782.63;5055442;28;65747;-40
2022/10/13 03:14:38;;;;;;;10.25;9.43;;;;;;;30.79;65.41;100807.94;5059039;28;69995;-40
2022/10/13 03:17:10;;;;;;;11.35;9.60;;;;;;;30.69;65.43;100793.00;5059429;28;65527;-40
2022/10/13 03:19:42;;;;;;;11.52;10.45;;;;;;;30.85;65.58;100804.38;5058204;28;70326;-40
2022/10/13 03:22:18;;;;;;;10.73;9.88;;;;;;;30.77;66.01;100794.59;5057693;28;66665;-40
2022/10/13 03:24:50;;;;;;;11.13;9.98;;;;;;;30.83;65.51;100791.03;5060022;28;69906;-40
2022/10/13 03:27:21;;;;;;;10.27;9.38;;;;;;;30.91;65.16;100795.34;5059336;28;65992;-40
2022/10/13 03:29:51;;;;;;;10.35;9.50;;;;;;;30.94;65.36;100794.91;5057843;28;70616;-40
2022/10/13 03:32:25;;;;;;;12.05;9.88;;;;;;;30.93;65.00;100785.94;5058511;28;66285;-40
2022/10/13 03:34:55;;;;;;;10.50;9.45;;;;;;;30.99;65.04;100786.13;5058578;28;70420;-41
2022/10/13 03:37:29;;;;;;;9.82;8.93;;;;;;;31.01;64.94;100779.44;5058258;28;66471;-41
2022/10/13 03:39:59;;;;;;;9.60;8.82;;;;;;;31.02;64.69;100772.94;5058625;28;69855;-41
2022/10/13 03:42:30;;;;;;;8.93;8.32;;;;;;;31.04;64.71;100765.44;5056607;28;65695;-40
2022/10/13 03:45:01;;;;;;;10.23;9.48;;;;;;;31.05;64.73;100750.81;5057050;28;70636;-42
2022/10/13 03:47:37;;;;;;;10.68;9.57;;;;;;;30.99;64.89;100732.75;5058950;28;66293;-40
2022/10/13 03:50:07;;;;;;;10.43;9.45;;;;;;;31.11;64.59;100757.22;5057679;28;69988;-40
2022/10/13 03:52:38;;;;;;;13.02;9.40;;;;;;;30.97;64.43;100717.78;5058658;28;65633;-40
2022/10/13 03:55:09;;;;;;;9.25;8.55;;;;;;;31.14;64.52;100746.75;5059076;28;70332;-40
2022/10/13 03:57:39;;;;;;;16.38;9.18;;;;;;;31.13;64.54;100734.28;5057095;28;66637;-40
2022/10/13 04:00:10;;;;;;;10.65;8.98;;;;;;;31.16;64.68;100733.81;5058697;28;70645;-40
2022/10/13 04:02:40;;;;;;;10.18;9.20;;;;;;;31.09;64.42;100722.25;5069270;28;67995;-41
2022/10/13 04:05:12;;;;;;;10.00;9.10;;;;;;;31.17;64.28;100727.38;5057745;28;70560;-43
2022/10/13 04:07:42;;;;;;;10.98;9.25;;;;;;;31.22;64.03;100725.84;5054394;28;66344;-41
2022/10/13 04:10:19;;;;;;;12.13;9.77;;;;;;;31.24;64.08;100715.59;5055976;28;69794;-43
2022/10/13 04:12:50;;;;;;;10.10;9.13;;;;;;;31.23;64.46;100716.66;5059424;28;66370;-40
2022/10/13 04:15:20;;;;;;;13.70;9.35;;;;;;;31.21;64.05;100716.06;5062177;28;69531;-42
2022/10/13 04:17:51;;;;;;;11.05;9.95;;;;;;;31.27;64.16;100707.84;5057995;28;66245;-42
2022/10/13 04:20:22;;;;;;;11.93;9.13;;;;;;;31.21;63.89;100686.25;5041221;28;70073;-41
2022/10/13 04:22:54;;;;;;;10.95;9.70;;;;;;;31.27;63.61;100696.19;5059244;28;65237;-41
2022/10/13 04:25:25;;;;;;;10.60;9.70;;;;;;;31.31;63.62;100686.53;5057785;28;69390;-40
2022/10/13 04:27:55;;;;;;;15.05;9.18;;;;;;;31.30;63.79;100690.31;5026099;28;64703;-40
2022/10/13 04:30:26;;;;;;;10.02;8.75;;;;;;;31.33;63.75;100679.00;5059166;28;70570;-39
2022/10/13 04:32:56;;;;;;;14.00;9.48;;;;;;;31.34;63.56;100672.50;5056171;28;66595;-41
2022/10/13 04:35:27;;;;;;;15.45;10.23;;;;;;;31.34;63.68;100664.38;5057943;28;69569;-41
2022/10/13 04:37:57;;;;;;;10.73;9.70;;;;;;;31.37;63.45;100675.66;5056126;28;66459;-40
2022/10/13 04:40:28;;;;;;;9.68;8.68;;;;;;;30.98;63.74;100587.56;5057144;28;70463;-40
2022/10/13 04:42:58;;;;;;;10.95;9.43;;;;;;;31.40;63.71;100644.56;5058674;28;65748;-41
2022/10/13 04:45:29;;;;;;;10.23;9.23;;;;;;;31.42;63.21;100645.13;5056940;28;70194;-40
2022/10/13 04:48:00;;;;;;;13.02;9.77;;;;;;;31.46;63.46;100640.09;5057243;28;66517;-41
2022/10/13 04:50:31;;;;;;;12.73;9.03;;;;;;;31.44;63.50;100643.03;5056313;28;69319;-41
2022/10/13 04:53:01;;;;;;;11.38;9.30;;;;;;;31.46;63.41;100630.06;5057088;28;66727;-42
2022/10/13 04:55:34;;;;;;;10.05;9.13;;;;;;;31.46;63.21;100619.22;5053261;28;70617;-40
2022/10/13 04:58:05;;;;;;;10.10;9.25;;;;;;;31.53;63.12;100608.28;5054122;28;66175;-41
2022/10/13 05:00:35;;;;;;;10.50;9.30;;;;;;;31.55;63.03;100607.00;5055796;28;70319;-43
2022/10/13 05:03:06;;;;;;;10.18;9.20;;;;;;;31.56;62.79;100605.09;5057471;28;66324;-40
2022/10/13 05:05:37;;;;;;;9.70;8.90;;;;;;;31.53;62.78;100592.84;5054381;28;68630;-41
2022/10/13 05:08:07;;;;;;;9.35;8.55;;;;;;;31.60;62.67;100593.56;5055677;28;66227;-41
2022/10/13 05:10:39;;;;;;;10.18;9.02;;;;;;;31.64;62.64;100587.69;5054933;28;70083;-41
2022/10/13 05:13:09;;;;;;;8.95;8.27;;;;;;;31.64;62.64;100587.69;5057278;28;65928;-42
2022/10/13 05:15:40;;;;;;;10.00;9.00;;;;;;;31.64;62.62;100574.94;5055395;28;70226;-42
2022/10/13 05:18:11;;;;;;;9.68;8.73;;;;;;;31.69;62.65;100574.25;5056554;28;66013;-42
2022/10/13 05:20:42;;;;;;;10.10;9.30;;;;;;;31.67;62.63;100554.69;5056773;28;70548;-43
2022/10/13 05:23:14;;;;;;;10.52;8.82;;;;;;;31.75;62.31;100565.19;5052476;28;66729;-42
2022/10/13 05:25:45;;;;;;;9.57;8.73;;;;;;;31.69;62.17;100552.56;5058650;28;70087;-43
2022/10/13 05:28:18;;;;;;;8.23;7.72;;;;;;;31.73;62.36;100548.31;5055702;28;66252;-43
2022/10/13 05:30:49;;;;;;;9.25;8.45;;;;;;;31.78;62.30;100557.41;5056455;28;70781;-40
2022/10/13 05:33:19;;;;;;;9.38;8.45;;;;;;;31.81;62.58;100554.22;5056079;28;66588;-41
2022/10/13 05:35:53;;;;;;;9.32;8.27;;;;;;;31.84;62.07;100552.91;5054874;28;69863;-43
2022/10/13 05:38:26;;;;;;;8.88;8.07;;;;;;;31.36;62.03;100469.88;5056249;28;66300;-41
2022/10/13 05:41:02;;;;;;;8.35;7.68;;;;;;;31.40;62.01;100460.25;5054473;28;69113;-42
2022/10/13 05:43:34;;;;;;;10.15;9.23;;;;;;;31.90;62.21;100533.03;5053549;28;65775;-41
2022/10/13 05:46:05;;;;;;;13.93;8.18;;;;;;;31.91;61.90;100526.56;5055777;28;69934;-42
2022/10/13 05:48:38;;;;;;;7.97;7.45;;;;;;;31.33;61.87;100435.09;5048435;28;66329;-41
2022/10/13 05:51:44;;;;;;;7.93;7.20;;;;;;;31.81;61.55;100524.38;5057685;28;70452;-41
2022/10/13 05:54:29;;;;;;;8.10;7.53;;;;;;;31.91;61.89;100518.41;5052552;28;65854;-41
2022/10/13 05:57:05;;;;;;;8.90;8.10;;;;;;;31.92;61.21;100514.63;5057717;28;69582;-42
2022/10/13 05:59:45;;;;;;;7.60;7.00;;;;;;;32.01;61.33;100512.38;5055760;28;65615;-42
2022/10/13 06:02:18;;;;;;;8.15;7.38;;;;;;;31.47;61.51;100409.44;5038444;28;68859;-41
2022/10/13 06:04:54;;;;;;;11.10;7.50;;;;;;;31.80;61.00;100457.66;5056168;28;65203;-40
2022/10/13 06:07:25;;;;;;;9.60;7.63;;;;;;;32.10;61.24;100496.59;5057248;28;69496;-40
2022/10/13 06:09:57;;;;;;;7.93;7.22;;;;;;;31.91;61.04;100469.59;5057821;28;66422;-41
2022/10/13 06:12:29;;;;;;;7.53;6.95;;;;;;;32.13;61.25;100490.69;5056132;28;70819;-40
2022/10/13 06:15:00;;;;;;;8.60;6.85;;;;;;;32.17;61.18;100489.94;5056758;28;66088;-42
2022/10/13 06:17:30;;;;;;;7.13;6.63;;;;;;;32.18;60.68;100488.06;5047885;28;69208;-40
2022/10/13 06:20:01;;;;;;;7.15;6.53;;;;;;;32.24;60.83;100484.41;5056333;28;66054;-40
2022/10/13 06:22:33;;;;;;;7.22;6.63;;;;;;;31.84;60.65;100425.44;5055313;28;70747;-40
2022/10/13 06:25:06;;;;;;;;;;;;;;;31.95;61.05;100492.44;5052439;28;65735;-40
2022/10/13 06:27:36;;;;;;;9.13;6.20;;;;;;;32.28;60.61;100497.25;5057225;28;69531;-41
2022/10/13 06:30:07;;;;;;;7.15;6.55;;;;;;;32.33;60.46;100493.00;5057650;28;66374;-41
2022/10/13 06:32:38;;;;;;;7.18;6.68;;;;;;;32.35;60.48;100485.44;5054873;28;69794;-41
2022/10/13 06:35:09;;;;;;;6.70;6.10;;;;;;;32.37;60.19;100484.13;5057492;28;65578;-41
2022/10/13 06:37:39;;;;;;;8.70;6.47;;;;;;;32.38;60.13;100479.53;5056826;28;69372;-41
2022/10/13 06:40:11;;;;;;;6.85;6.35;;;;;;;32.41;60.11;100477.16;5041919;28;65935;-41
2022/10/13 06:42:41;;;;;;;7.38;6.80;;;;;;;32.45;60.20;100475.59;5060263;28;71117;-41
2022/10/13 06:45:12;;;;;;;6.63;6.03;;;;;;;32.49;59.96;100471.38;5058867;28;66505;-41
2022/10/13 06:47:42;;;;;;;6.30;5.88;;;;;;;32.51;59.90;100470.31;5056938;28;68564;-41
2022/10/13 06:50:13;;;;;;;7.50;6.85;;;;;;;32.53;59.64;100471.72;5059622;28;66349;-41
2022/10/13 06:52:43;;;;;;;6.20;5.70;;;;;;;32.55;59.55;100463.34;5058755;28;70617;-41
2022/10/13 06:55:14;;;;;;;6.82;6.03;;;;;;;32.56;59.62;100460.38;5057509;28;67420;-42
2022/10/13 06:57:45;;;;;;;5.72;5.32;;;;;;;32.47;59.61;100443.66;5059811;28;71492;-41
2022/10/13 07:00:16;;;;;;;6.50;5.90;;;;;;;32.55;59.62;100452.50;5058426;28;65998;-41
2022/10/13 07:02:51;;;;;;;6.65;5.75;;;;;;;32.61;58.95;100456.94;5059722;28;69353;-41
2022/10/13 07:05:21;;;;;;;6.03;5.50;;;;;;;32.63;59.14;100449.38;5059498;28;66959;-41
2022/10/13 07:07:55;;;;;;;6.38;5.95;;;;;;;32.64;59.32;100448.31;5058480;28;70029;-40
2022/10/13 07:10:25;;;;;;;6.20;5.55;;;;;;;32.67;59.16;100445.09;5058736;28;66356;-41
2022/10/13 07:12:56;;;;;;;6.07;5.57;;;;;;;32.69;58.92;100442.97;5060013;28;69966;-42
2022/10/13 07:15:27;;;;;;;6.97;6.07;;;;;;;32.66;58.98;100440.75;5057748;28;66229;-39
2022/10/13 07:17:58;;;;;;;6.30;5.30;;;;;;;32.73;58.92;100444.13;5058994;28;69545;-40
2022/10/13 07:20:29;;;;;;;5.72;5.43;;;;;;;32.74;58.91;100444.97;5057137;28;66005;-41
2022/10/13 07:23:00;;;;;;;5.43;5.03;;;;;;;32.70;59.21;100436.47;5057981;28;69114;-41
2022/10/13 07:25:30;;;;;;;5.85;5.40;;;;;;;32.76;58.99;100440.91;5059429;28;66491;-41
2022/10/13 07:28:01;;;;;;;5.50;5.10;;;;;;;32.81;58.84;100440.19;5059811;28;69249;-41
2022/10/13 07:30:31;;;;;;;5.60;5.20;;;;;;;32.81;58.89;100434.75;5050143;28;66107;-41
2022/10/13 07:33:02;;;;;;;7.72;4.93;;;;;;;32.80;58.73;100439.38;5059319;28;69158;-41
2022/10/13 07:35:33;;;;;;;5.97;5.00;;;;;;;32.77;58.74;100429.00;5052835;28;66187;-40
2022/10/13 07:38:03;;;;;;;5.53;5.15;;;;;;;32.84;58.70;100451.38;5056456;28;69883;-41
2022/10/13 07:40:34;;;;;;;5.78;5.22;;;;;;;32.86;58.64;100432.97;5058827;28;65109;-41
2022/10/13 07:43:05;;;;;;;7.53;5.10;;;;;;;32.65;58.78;100410.06;5058338;28;70255;-41
2022/10/13 07:45:35;;;;;;;5.15;4.80;;;;;;;32.87;58.65;100442.75;5059460;28;66637;-41
2022/10/13 07:48:06;;;;;;;5.80;5.30;;;;;;;32.87;58.49;100439.22;5058491;28;69221;-41
2022/10/13 07:50:37;;;;;;;5.65;5.25;;;;;;;32.90;58.47;100426.00;5058113;28;66371;-41
2022/10/13 07:53:07;;;;;;;5.90;5.25;;;;;;;32.91;58.47;100421.38;5058249;28;70150;-41
2022/10/13 07:55:38;;;;;;;5.63;4.80;;;;;;;32.87;58.37;100412.06;5059001;28;66607;-41
2022/10/13 07:58:09;;;;;;;6.30;5.45;;;;;;;32.84;58.37;100410.66;5058012;28;70284;-40
2022/10/13 08:00:40;;;;;;;5.50;5.00;;;;;;;32.91;58.42;100424.91;5056169;28;66176;-40
2022/10/13 08:03:11;;;;;;;5.45;5.05;;;;;;;32.93;58.46;100411.91;5059172;28;70072;-41
2022/10/13 08:05:41;;;;;;;10.50;5.30;;;;;;;32.91;58.32;100407.78;5056478;28;67300;-40
2022/10/13 08:08:12;;;;;;;6.53;5.72;;;;;;;32.96;58.33;100404.31;5059759;28;69525;-41
2022/10/13 08:10:42;;;;;;;5.55;5.05;;;;;;;32.91;58.37;100405.88;5057314;28;66097;-40
2022/10/13 08:13:13;;;;;;;5.47;5.03;;;;;;;32.99;58.46;100406.53;5057613;28;69628;-40
2022/10/13 08:15:45;;;;;;;5.05;4.57;;;;;;;32.99;57.96;100401.09;5058660;28;65569;-40
2022/10/13 08:18:16;;;;;;;5.68;4.95;;;;;;;33.00;58.08;100398.19;5057852;28;70400;-40
2022/10/13 08:20:46;;;;;;;4.93;4.60;;;;;;;33.02;58.04;100395.25;5056083;28;66349;-41
2022/10/13 08:23:19;;;;;;;5.43;4.80;;;;;;;33.04;58.19;100395.78;5056903;28;69587;-40
2022/10/13 08:25:52;;;;;;;5.13;4.70;;;;;;;33.03;58.25;100396.88;5058543;28;65730;-40
2022/10/13 08:28:27;;;;;;;5.55;5.05;;;;;;;33.07;58.04;100395.28;5058101;28;69705;-40
2022/10/13 08:30:58;;;;;;;4.90;4.57;;;;;;;33.08;58.25;100397.78;5059242;28;66160;-39
2022/10/13 08:33:28;;;;;;;5.00;4.65;;;;;;;33.08;58.06;100397.78;5056286;28;70632;-40
2022/10/13 08:35:59;;;;;;;8.60;4.65;;;;;;;33.10;58.14;100397.53;5056872;28;65178;-40
2022/10/13 08:38:29;;;;;;;5.00;4.60;;;;;;;32.98;58.03;100380.44;5057945;28;70096;-40
2022/10/13 08:41:01;;;;;;;4.57;4.28;;;;;;;33.10;58.01;100392.13;5056748;28;66658;-41
2022/10/13 08:43:32;;;;;;;5.18;4.65;;;;;;;33.13;58.15;100405.19;5057271;28;70125;-40
2022/10/13 08:46:02;;;;;;;5.32;4.88;;;;;;;33.15;58.19;100393.00;5056125;28;66715;-40
2022/10/13 08:48:40;;;;;;;5.50;5.10;;;;;;;32.36;57.87;100268.06;5054712;28;70407;-40
2022/10/13 08:51:14;;;;;;;5.35;4.85;;;;;;;32.68;57.94;100321.81;5058893;28;66926;-40
2022/10/13 08:53:47;;;;;;;7.47;5.05;;;;;;;33.20;57.87;100405.84;5051286;28;69551;-40
2022/10/13 08:56:31;;;;;;;9.20;4.85;;;;;;;32.76;57.75;100345.84;5057062;28;66056;-40
2022/10/13 08:59:04;;;;;;;5.57;4.43;;;;;;;32.85;57.82;100349.03;5057563;28;69767;-40
2022/10/13 09:01:36;;;;;;;5.20;4.70;;;;;;;33.24;57.87;100401.56;5057589;28;66531;-40
2022/10/13 09:04:07;;;;;;;5.72;4.68;;;;;;;33.24;57.75;100407.00;5057309;28;70068;-42
2022/10/13 09:06:49;;;;;;;6.30;4.80;;;;;;;33.21;57.88;100396.63;5055825;28;65258;-42
2022/10/13 09:09:19;;;;;;;4.65;4.35;;;;;;;33.27;57.71;100405.69;5057639;28;70099;-47
2022/10/13 09:11:51;;;;;;;4.85;4.45;;;;;;;33.28;58.06;100408.16;5055674;28;66570;-41
2022/10/13 09:14:26;;;;;;;5.30;4.85;;;;;;;33.12;57.94;100384.50;5049964;28;70389;-41
2022/10/13 09:17:22;;;;;;;7.78;4.43;;;;;;;33.19;57.50;100409.66;5057446;28;66296;-40
2022/10/13 09:20:19;;;;;;;5.28;4.80;;;;;;;33.27;57.41;100411.94;5054196;28;68980;-40
2022/10/13 09:23:06;;;;;;;4.90;4.50;;;;;;;32.80;57.96;100395.91;5054429;28;65979;-42
2022/10/13 09:25:42;;;;;;;5.97;5.00;;;;;;;32.16;58.77;100314.66;5063855;28;43852;-42
2022/10/13 09:28:23;;;;;;;7.40;5.13;;;;;;;32.62;59.16;100415.13;5059624;28;66967;-43
2022/10/13 09:31:12;;;;;;;5.10;4.70;;;;;;;32.51;59.65;100416.00;5064870;28;70161;-42
2022/10/13 09:33:44;;;;;;;7.38;4.82;;;;;;;32.48;59.70;100409.16;5061044;28;65603;-42
2022/10/13 09:36:15;;;;;;;7.80;5.00;;;;;;;32.46;59.65;100412.16;5058768;28;69244;-41
2022/10/13 09:39:16;;;;;;;8.65;5.60;;;;;;;32.35;59.67;100420.31;5057100;28;66397;-42
2022/10/13 09:41:47;;;;;;;10.85;5.22;;;;;;;32.21;59.73;100389.91;5059241;28;70903;-43
2022/10/13 09:44:30;;;;;;;12.43;5.68;;;;;;;31.97;59.67;100364.72;5060512;28;66046;-40
2022/10/13 09:47:03;;;;;;;7.82;5.65;;;;;;;31.90;59.57;100348.56;5041024;28;69593;-40
2022/10/13 09:49:38;;;;;;;7.32;5.78;;;;;;;32.36;60.10;100428.19;5022392;28;65986;-42
2022/10/13 09:52:12;;;;;;;11.10;5.47;;;;;;;32.37;60.52;100418.97;5058986;28;69968;-42
2022/10/13 09:54:45;;;;;;;5.50;4.93;;;;;;;32.35;60.42;100420.31;5057443;28;66573;-41
2022/10/13 09:57:31;;;;;;;8.63;5.18;;;;;;;32.30;60.48;100421.03;5058815;28;69763;-42
2022/10/13 10:00:26;;;;;;;5.68;5.07;;;;;;;31.74;61.27;100349.31;5055646;28;65506;-41
2022/10/13 10:03:02;;;;;;;5.82;5.32;;;;;;;32.29;61.37;100432.97;5055187;28;70372;-43
2022/10/13 10:05:54;;;;;;;6.07;4.60;;;;;;;32.26;61.47;100427.97;5067236;27;66545;-40
2022/10/13 10:08:46;;;;;;;11.23;5.22;;;;;;;32.18;62.04;100425.63;5050688;28;70342;-41
2022/10/13 10:11:41;;;;;;;6.00;4.53;;;;;;;32.14;61.81;100413.63;5057926;28;66331;-41
2022/10/13 10:14:24;;;;;;;5.78;5.22;;;;;;;32.18;62.06;100417.50;5051822;28;70819;-42
2022/10/13 10:17:18;;;;;;;5.53;4.90;;;;;;;32.24;62.22;100425.53;5049661;28;66493;-41
2022/10/13 10:20:29;;;;;;;5.32;4.93;;;;;;;32.16;63.20;100423.19;5037643;28;70911;-43
2022/10/13 10:23:32;;;;;;;7.53;4.70;;;;;;;32.12;63.33;100427.44;5072199;28;65139;-44
2022/10/13 10:26:18;;;;;;;6.45;4.90;;;;;;;31.73;63.48;100348.50;5035842;28;70227;-42
2022/10/13 10:29:06;;;;;;;10.70;6.07;;;;;;;31.94;62.05;100385.00;5053412;28;65989;-41
2022/10/13 10:32:17;;;;;;;8.63;6.05;;;;;;;32.17;61.43;100424.00;5066007;28;70346;-42
2022/10/13 10:35:43;;;;;;;7.68;6.95;;;;;;;32.07;61.95;100432.78;5036668;28;66569;-43
2022/10/13 10:38:34;;;;;;;6.32;5.78;;;;;;;32.16;62.54;100431.31;5015207;28;69667;-44
2022/10/13 10:41:29;;;;;;;6.00;5.57;;;;;;;32.11;62.96;100435.81;5074100;28;66837;-41
2022/10/13 10:44:29;;;;;;;10.75;5.60;;;;;;;32.09;63.66;100441.47;5056095;28;69281;-43
2022/10/13 10:47:06;;;;;;;11.13;5.80;;;;;;;32.18;63.77;100441.94;5061648;28;65487;-41
2022/10/13 10:49:38;;;;;;;6.65;5.88;;;;;;;32.19;64.42;100443.59;5062275;27;69026;-42
2022/10/13 10:52:11;;;;;;;;;;;;;;;31.94;65.24;100444.69;5064238;28;66615;-42
2022/10/13 10:55:03;;;;;;;7.90;5.35;;;;;;;32.04;65.15;100439.50;5058723;28;70074;-43
2022/10/13 10:57:52;;;;;;;13.45;6.72;;;;;;;32.33;64.87;100455.81;5061017;28;66931;-43
2022/10/13 11:00:23;;;;;;;11.18;6.28;;;;;;;32.49;63.68;100452.38;5055053;28;69593;-41
2022/10/13 11:03:28;;;;;;;8.18;5.45;;;;;;;32.51;64.33;100456.75;5060197;28;66660;-41
2022/10/13 11:06:05;;;;;;;8.82;5.50;;;;;;;32.58;63.19;100452.81;5061395;28;69456;-41
2022/10/13 11:08:42;;;;;;;6.60;5.88;;;;;;;32.67;63.41;100455.97;5061281;28;65671;-49
2022/10/13 11:11:35;;;;;;;8.85;6.05;;;;;;;32.59;63.90;100469.94;5053571;28;70435;-42
2022/10/13 11:14:29;;;;;;;6.85;6.30;;;;;;;32.60;64.11;100455.31;5061856;28;65755;-42
2022/10/13 11:17:06;;;;;;;8.35;5.55;;;;;;;32.70;63.76;100461.72;5057956;28;70159;-42
2022/10/13 11:19:38;;;;;;;15.10;5.75;;;;;;;32.69;63.47;100464.72;5062137;28;66436;-43
2022/10/13 11:22:17;;;;;;;8.32;6.13;;;;;;;32.75;63.72;100484.63;5061447;28;69983;-42
2022/10/13 11:24:55;;;;;;;8.13;5.93;;;;;;;32.75;63.61;100480.03;5061367;28;66496;-43
2022/10/13 11:27:36;;;;;;;7.53;6.82;;;;;;;32.74;63.81;100483.81;5059171;28;69720;-42
2022/10/13 11:30:40;;;;;;;7.55;6.05;;;;;;;32.63;65.13;100481.97;5054499;28;65530;-44
2022/10/13 11:33:38;;;;;;;7.28;6.50;;;;;;;32.63;64.96;100490.13;5048579;28;69740;-43
2022/10/13 11:36:28;;;;;;;8.82;6.03;;;;;;;32.62;65.00;100480.31;5052237;28;66245;-43
2022/10/13 11:39:26;;;;;;;7.00;6.22;;;;;;;32.66;64.85;100486.91;5058718;28;70427;-43
2022/10/13 11:42:05;;;;;;;6.90;6.38;;;;;;;32.69;64.71;100486.44;5055632;28;66576;-41
2022/10/13 11:44:53;;;;;;;9.35;6.38;;;;;;;32.66;65.12;100498.59;5051124;28;70497;-42
2022/10/13 11:48:00;;;;;;;8.77;7.30;;;;;;;32.61;65.37;100492.25;5046327;28;65729;-43
2022/10/13 11:50:58;;;;;;;8.05;6.93;;;;;;;32.63;65.00;100493.66;5048296;28;70377;-43
2022/10/13 11:53:59;;;;;;;8.38;6.85;;;;;;;32.07;65.24;100412.94;5037495;28;66227;-43
2022/10/13 11:56:45;;;;;;;7.97;7.18;;;;;;;32.13;64.96;100422.84;5026649;28;69588;-41
2022/10/13 11:59:32;;;;;;;7.88;7.28;;;;;;;32.25;65.17;100448.06;5055311;28;66405;-41